Погода Истауакан-де-лос-Мембрийосна неделю

Халиско, Мексика

05 - 11 декабря
  • 05декабря
    Сегодня
    +11°
    +27°
    Ясно и безоблачно
    ВремяПогодаТемператураВлажностьДавлениеВетер, м/сВероятность осадков
    00:00Ясно и безоблачно+16°C66 %629 мм0.7 м/с2 %
    03:00Ясно и безоблачно+13°C67 %628 мм1.7 м/с2 %
    06:00Ясно и безоблачно+11°C80 %628 мм0.3 м/с2 %
    09:00Ясно и безоблачно+15°C67 %631 мм0.7 м/с2 %
    12:00Ясно и безоблачно+24°C48 %633 мм1.6 м/с2 %
    15:00Ясно и безоблачно+27°C36 %631 мм1.6 м/с2 %
    18:00Ясно и безоблачно+25°C44 %630 мм2.1 м/с2 %
    21:00Ясно и безоблачно+18°C66 %629 мм1.2 м/с2 %
  • 06декабря
    Вторник
    +12°
    +27°
    Ясно и безоблачно
    ВремяПогодаТемператураВлажностьДавлениеВетер, м/сВероятность осадков
    00:00Ясно и безоблачно+16°C69 %629 мм1.3 м/с2 %
    03:00Ясно и безоблачно+14°C80 %628 мм1.1 м/с2 %
    06:00Ясно и безоблачно+12°C84 %627 мм0.0 м/с2 %
    09:00Ясно и безоблачно+16°C74 %631 мм0.6 м/с2 %
    12:00Ясно и безоблачно+24°C55 %633 мм1.7 м/с2 %
    15:00Ясно и безоблачно+27°C35 %631 мм1.6 м/с2 %
    18:00Ясно и безоблачно+25°C42 %630 мм2.5 м/с2 %
    21:00Ясно и безоблачно+18°C64 %629 мм1.6 м/с2 %
  • 07декабря
    Среда
    +11°
    +27°
    Практически безоблачно
    ВремяПогодаТемператураВлажностьДавлениеВетер, м/сВероятность осадков
    00:00Ясно и безоблачно+17°C69 %630 мм1.5 м/с2 %
    03:00Ясно и безоблачно+15°C78 %629 мм0.7 м/с2 %
    06:00Практически безоблачно+12°C83 %629 мм0.0 м/с2 %
    09:00Ясно и безоблачно+16°C78 %632 мм0.3 м/с2 %
    12:00Ясно и безоблачно+24°C54 %634 мм1.7 м/с2 %
    15:00Практически безоблачно+27°C36 %633 мм1.9 м/с2 %
    18:00Практически безоблачно+25°C38 %632 мм2.8 м/с2 %
    21:00Ясно и безоблачно+18°C59 %631 мм1.9 м/с2 %
  • 08декабря
    Четверг
    +10°
    +27°
    Небольшая облачность
    ВремяПогодаТемператураВлажностьДавлениеВетер, м/сВероятность осадков
    00:00Ясно и безоблачно+16°C77 %631 мм1.3 м/с2 %
    03:00Практически безоблачно+14°C84 %630 мм0.4 м/с2 %
    06:00Ясно и безоблачно+12°C88 %629 мм0.0 м/с2 %
    09:00Ясно и безоблачно+15°C79 %632 мм0.3 м/с2 %
    12:00Практически безоблачно+24°C57 %634 мм1.8 м/с2 %
    15:00Небольшая облачность+27°C42 %632 мм1.9 м/с2 %
    18:00Ясно и безоблачно+24°C43 %631 мм2.6 м/с2 %
    21:00Ясно и безоблачно+17°C65 %629 мм0.8 м/с2 %
  • 09декабря
    Пятница
    +10°
    +27°
    Ясно и безоблачно
    ВремяПогодаТемператураВлажностьДавлениеВетер, м/сВероятность осадков
    00:00Ясно и безоблачно+15°C80 %629 мм0.5 м/с2 %
    03:00Практически безоблачно+13°C86 %629 мм0.8 м/с2 %
    06:00Практически безоблачно+11°C91 %628 мм0.3 м/с2 %
    09:00Ясно и безоблачно+14°C66 %631 мм0.7 м/с2 %
    12:00Ясно и безоблачно+22°C46 %633 мм1.6 м/с2 %
    15:00Ясно и безоблачно+26°C36 %631 мм1.5 м/с2 %
    18:00Ясно и безоблачно+24°C43 %630 мм2.1 м/с2 %
    21:00Ясно и безоблачно+16°C60 %628 мм0.6 м/с2 %
Мы используем cookies
Соглашаюсь